createdAt,value
2022-09-23T00:01:07.577Z,63.39
2022-09-23T00:03:37.067Z,63.33
2022-09-23T00:06:12.525Z,63.21
2022-09-23T00:08:40.204Z,63.26
2022-09-23T00:11:12.930Z,63.17
2022-09-23T00:13:41.070Z,63.02
2022-09-23T00:16:10.846Z,62.85
2022-09-23T00:18:37.353Z,62.93
2022-09-23T00:21:10.102Z,62.77
2022-09-23T00:23:37.823Z,62.85
2022-09-23T00:26:06.279Z,62.82
2022-09-23T00:28:33.337Z,63.05
2022-09-23T00:31:05.527Z,63.24
2022-09-23T00:33:32.614Z,63.14
2022-09-23T00:36:00.816Z,62.93
2022-09-23T00:38:28.038Z,62.94
2022-09-23T00:40:54.559Z,63.08
2022-09-23T00:43:37.855Z,62.92
2022-09-23T00:46:06.638Z,63.00
2022-09-23T00:48:33.315Z,63.01
2022-09-23T00:51:00.218Z,62.97
2022-09-23T00:53:27.802Z,63.05
2022-09-23T00:56:00.631Z,62.82
2022-09-23T00:58:32.567Z,63.02
2022-09-23T01:01:00.581Z,63.05
2022-09-23T01:03:28.071Z,63.04
2022-09-23T01:05:56.026Z,63.16
2022-09-23T01:08:24.491Z,63.35
2022-09-23T01:11:01.070Z,63.17
2022-09-23T01:13:55.705Z,63.10
2022-09-23T01:16:28.337Z,63.17
2022-09-23T01:19:10.287Z,62.90
2022-09-23T01:22:09.194Z,63.07
2022-09-23T01:24:54.187Z,63.16
2022-09-23T01:27:32.777Z,63.01
2022-09-23T01:30:36.161Z,63.21
2022-09-23T01:37:09.563Z,62.89
2022-09-23T01:39:52.719Z,63.29
2022-09-23T01:42:29.634Z,63.26
2022-09-23T01:45:03.031Z,63.40
2022-09-23T01:48:34.499Z,63.36
2022-09-23T01:51:10.554Z,63.40
2022-09-23T01:53:56.469Z,63.40
2022-09-23T01:56:31.076Z,63.40
2022-09-23T01:59:06.034Z,63.39
2022-09-23T02:01:42.755Z,63.68
2022-09-23T02:04:17.425Z,63.55
2022-09-23T02:06:51.087Z,63.47
2022-09-23T02:09:24.953Z,63.42
2022-09-23T02:12:00.570Z,63.39
2022-09-23T02:14:36.222Z,63.41
2022-09-23T02:17:09.590Z,63.52
2022-09-23T02:19:50.047Z,63.52
2022-09-23T02:22:34.510Z,63.58
2022-09-23T02:25:01.016Z,63.59
2022-09-23T02:27:39.466Z,63.52
2022-09-23T02:30:15.489Z,63.54
2022-09-23T02:33:08.224Z,63.48
2022-09-23T02:35:53.916Z,63.61
2022-09-23T02:38:23.358Z,63.64
2022-09-23T02:41:10.423Z,63.56
2022-09-23T02:43:49.394Z,63.61
2022-09-23T02:46:16.693Z,63.60
2022-09-23T02:48:50.343Z,63.57
2022-09-23T02:51:16.953Z,63.55
2022-09-23T02:53:44.291Z,63.54
2022-09-23T02:56:17.283Z,63.64
2022-09-23T02:58:44.052Z,63.61
2022-09-23T03:01:11.030Z,63.48
2022-09-23T03:04:06.806Z,63.82
2022-09-23T03:06:54.485Z,63.75
2022-09-23T03:09:38.471Z,63.81
2022-09-23T03:12:21.583Z,63.60
2022-09-23T03:15:03.528Z,63.93
2022-09-23T03:17:39.150Z,64.10
2022-09-23T03:20:15.342Z,63.63
2022-09-23T03:22:54.875Z,63.76
2022-09-23T03:25:25.228Z,63.74
2022-09-23T03:27:57.507Z,63.55
2022-09-23T03:30:25.165Z,63.32
2022-09-23T03:32:52.773Z,63.46
2022-09-23T03:35:20.916Z,63.15
2022-09-23T03:37:56.532Z,63.49
2022-09-23T03:40:41.940Z,63.62
2022-09-23T03:43:09.725Z,63.82
2022-09-23T03:45:36.495Z,63.61
2022-09-23T03:48:03.470Z,63.52
2022-09-23T03:50:30.181Z,63.53
2022-09-23T03:52:56.696Z,63.57
2022-09-23T03:55:23.302Z,63.83
2022-09-23T03:57:49.774Z,63.63
2022-09-23T04:00:16.353Z,63.78
2022-09-23T04:02:44.114Z,63.83
2022-09-23T04:05:12.324Z,63.65
2022-09-23T04:07:39.401Z,63.62
2022-09-23T04:10:06.796Z,63.76
2022-09-23T04:12:33.325Z,63.72
2022-09-23T04:15:00.147Z,63.81
2022-09-23T04:17:26.821Z,63.93
2022-09-23T04:19:53.306Z,63.77
2022-09-23T04:22:20.063Z,63.85
2022-09-23T04:24:46.573Z,63.90
2022-09-23T04:27:13.081Z,63.58
2022-09-23T04:29:39.616Z,63.62
2022-09-23T04:32:06.250Z,63.73
2022-09-23T04:34:32.800Z,63.58
2022-09-23T04:36:59.279Z,63.81
2022-09-23T04:39:25.780Z,63.76
2022-09-23T04:41:52.290Z,63.67
2022-09-23T04:44:19.712Z,63.56
2022-09-23T04:46:48.252Z,63.46
2022-09-23T04:49:15.891Z,63.64
2022-09-23T04:51:43.445Z,63.50
2022-09-23T04:54:11.874Z,63.51
2022-09-23T04:56:39.703Z,63.42
2022-09-23T04:59:06.980Z,63.51
2022-09-23T05:01:35.084Z,63.67
2022-09-23T05:04:05.170Z,63.56
2022-09-23T05:06:34.525Z,63.71
2022-09-23T05:09:02.019Z,63.62
2022-09-23T05:11:31.455Z,63.58
2022-09-23T05:13:58.733Z,63.59
2022-09-23T05:16:26.874Z,63.48
2022-09-23T05:18:54.206Z,63.56
2022-09-23T05:21:23.309Z,63.60
2022-09-23T05:23:54.342Z,63.66
2022-09-23T05:26:25.727Z,63.68
2022-09-23T05:28:53.871Z,63.74
2022-09-23T05:31:22.703Z,63.62
2022-09-23T05:33:59.351Z,63.68
2022-09-23T05:36:27.517Z,63.99
2022-09-23T05:38:56.532Z,63.90
2022-09-23T05:41:25.242Z,64.02
2022-09-23T05:43:53.043Z,64.02
2022-09-23T05:46:23.204Z,64.13
2022-09-23T05:48:50.717Z,64.18
2022-09-23T05:51:22.336Z,64.11
2022-09-23T05:53:52.520Z,64.06
2022-09-23T05:56:23.479Z,64.00
2022-09-23T05:58:51.297Z,64.15
2022-09-23T06:01:26.236Z,64.14
2022-09-23T06:03:57.194Z,64.13
2022-09-23T06:06:30.645Z,64.21
2022-09-23T06:09:01.355Z,64.31
2022-09-23T06:11:33.101Z,64.25
2022-09-23T06:14:01.145Z,64.23
2022-09-23T06:16:29.724Z,64.27
2022-09-23T06:18:56.804Z,64.48
2022-09-23T06:21:24.017Z,64.16
2022-09-23T06:23:53.611Z,64.54
2022-09-23T06:26:22.558Z,64.44
2022-09-23T06:28:50.259Z,64.73
2022-09-23T06:31:17.402Z,64.66
2022-09-23T06:33:45.364Z,64.71
2022-09-23T06:36:18.150Z,64.78
2022-09-23T06:38:51.071Z,64.79
2022-09-23T06:41:17.629Z,64.69
2022-09-23T06:43:44.247Z,64.74
2022-09-23T06:46:15.908Z,64.81
2022-09-23T06:48:46.406Z,64.78
2022-09-23T06:51:20.021Z,64.77
2022-09-23T06:53:48.167Z,64.61
2022-09-23T06:56:16.616Z,64.78
2022-09-23T06:58:43.412Z,64.74
2022-09-23T07:01:16.829Z,64.65
2022-09-23T07:03:45.204Z,64.75
2022-09-23T07:06:12.185Z,64.56
2022-09-23T07:08:40.364Z,64.63
2022-09-23T07:11:07.272Z,64.58
2022-09-23T07:13:34.586Z,64.52
2022-09-23T07:16:02.187Z,64.75
2022-09-23T07:18:37.374Z,64.67
2022-09-23T07:21:16.183Z,64.63
2022-09-23T07:23:43.387Z,64.71
2022-09-23T07:26:10.316Z,64.96
2022-09-23T07:28:37.181Z,64.74
2022-09-23T07:31:09.822Z,64.52
2022-09-23T07:33:37.983Z,64.65
2022-09-23T07:36:10.449Z,64.69
2022-09-23T07:38:40.501Z,64.63
2022-09-23T07:41:11.394Z,64.45
2022-09-23T07:43:39.700Z,64.56
2022-09-23T07:46:13.056Z,64.57
2022-09-23T07:48:40.024Z,64.67
2022-09-23T07:51:11.735Z,64.68
2022-09-23T07:53:39.091Z,64.55
2022-09-23T07:56:06.328Z,64.55
2022-09-23T07:58:34.502Z,64.88
2022-09-23T08:01:11.212Z,64.78
2022-09-23T08:03:38.964Z,64.71
2022-09-23T08:06:07.700Z,64.81
2022-09-23T08:08:34.320Z,65.01
2022-09-23T08:11:05.269Z,65.01
2022-09-23T08:13:32.852Z,65.10
2022-09-23T08:15:59.503Z,65.13
2022-09-23T08:18:26.330Z,65.11
2022-09-23T08:20:53.180Z,65.24
2022-09-23T08:23:20.983Z,65.31
2022-09-23T08:25:47.892Z,65.35
2022-09-23T08:28:19.152Z,65.53
2022-09-23T08:30:48.929Z,65.46
2022-09-23T08:33:19.664Z,65.51
2022-09-23T08:35:49.305Z,65.66
2022-09-23T08:38:15.799Z,65.50
2022-09-23T08:40:45.164Z,65.79
2022-09-23T08:43:22.068Z,65.57
2022-09-23T08:45:51.112Z,65.71
2022-09-23T08:48:28.036Z,65.73
2022-09-23T08:50:58.719Z,65.69
2022-09-23T08:53:28.988Z,65.57
2022-09-23T08:55:59.590Z,65.63
2022-09-23T08:58:46.288Z,65.50
2022-09-23T09:01:38.806Z,65.40
2022-09-23T09:04:44.492Z,65.35
2022-09-23T09:07:35.788Z,65.38
2022-09-23T09:10:06.484Z,65.58
2022-09-23T09:12:47.866Z,65.19
2022-09-23T09:15:16.855Z,65.50
2022-09-23T09:18:04.851Z,65.34
2022-09-23T09:20:56.957Z,65.21
2022-09-23T09:23:32.160Z,65.30
2022-09-23T09:26:01.650Z,65.12
2022-09-23T09:28:51.947Z,65.04
2022-09-23T09:31:25.945Z,65.00
2022-09-23T09:34:06.234Z,64.99
2022-09-23T09:36:48.627Z,64.94
2022-09-23T09:39:16.299Z,65.15
2022-09-23T09:41:47.766Z,65.15
2022-09-23T09:44:40.590Z,64.59
2022-09-23T09:47:28.627Z,64.86
2022-09-23T09:50:09.203Z,65.02
2022-09-23T09:52:49.817Z,65.26
2022-09-23T09:55:37.324Z,65.02
2022-09-23T09:58:05.763Z,64.95
2022-09-23T10:00:42.931Z,64.73
2022-09-23T10:03:12.531Z,64.81
2022-09-23T10:05:45.188Z,64.63
2022-09-23T10:08:34.996Z,64.58
2022-09-23T10:11:15.141Z,64.57
2022-09-23T10:14:02.731Z,64.70
2022-09-23T10:16:34.321Z,64.61
2022-09-23T10:19:12.324Z,64.41
2022-09-23T10:21:39.773Z,64.31
2022-09-23T10:24:08.187Z,64.26
2022-09-23T10:26:51.559Z,64.14
2022-09-23T10:29:33.843Z,64.10
2022-09-23T10:32:22.224Z,63.91
2022-09-23T10:34:53.377Z,63.95
2022-09-23T10:37:38.007Z,63.99
2022-09-23T10:40:48.316Z,63.83
2022-09-23T10:43:55.043Z,63.77
2022-09-23T10:46:39.790Z,63.75
2022-09-23T10:49:49.887Z,63.78
2022-09-23T10:52:43.707Z,63.45
2022-09-23T10:55:51.321Z,63.32
2022-09-23T10:58:51.318Z,63.42
2022-09-23T11:01:41.115Z,63.31
2022-09-23T11:04:26.172Z,63.36
2022-09-23T11:07:27.933Z,63.03
2022-09-23T11:10:28.896Z,63.07
2022-09-23T11:13:24.486Z,62.93
2022-09-23T11:15:51.531Z,62.88
2022-09-23T11:18:49.993Z,62.62
2022-09-23T11:21:28.156Z,62.68
2022-09-23T11:24:24.864Z,62.72
2022-09-23T11:27:23.029Z,62.50
2022-09-23T11:30:02.088Z,62.24
2022-09-23T11:32:43.822Z,61.89
2022-09-23T11:35:25.853Z,62.07
2022-09-23T11:38:07.570Z,61.95
2022-09-23T11:40:43.948Z,61.70
2022-09-23T11:43:23.443Z,61.75
2022-09-23T11:45:58.492Z,61.81
2022-09-23T11:48:41.053Z,61.87
2022-09-23T11:51:24.724Z,61.22
2022-09-23T11:54:19.834Z,61.33
2022-09-23T11:56:52.157Z,61.54
2022-09-23T12:00:00.041Z,61.41
2022-09-23T12:02:59.011Z,61.12
2022-09-23T12:05:37.452Z,60.95
2022-09-23T12:08:12.869Z,60.94
2022-09-23T12:10:57.987Z,60.66
2022-09-23T12:13:48.619Z,60.90
2022-09-23T12:16:42.975Z,60.74
2022-09-23T12:19:33.139Z,60.84
2022-09-23T12:22:18.138Z,60.79
2022-09-23T12:25:07.047Z,60.70
2022-09-23T12:27:45.316Z,60.13
2022-09-23T12:30:23.066Z,60.00
2022-09-23T12:32:50.086Z,60.01
2022-09-23T12:35:26.276Z,59.77
2022-09-23T12:37:53.253Z,59.74
2022-09-23T12:40:43.632Z,59.95
2022-09-23T12:43:33.225Z,59.98
2022-09-23T12:46:32.136Z,60.26
2022-09-23T12:49:01.332Z,60.18
2022-09-23T12:51:35.803Z,60.29
2022-09-23T12:54:05.231Z,59.41
2022-09-23T12:56:37.804Z,58.96
2022-09-23T12:59:11.246Z,58.75
2022-09-23T13:01:38.849Z,58.46
2022-09-23T13:04:24.462Z,58.34
2022-09-23T13:07:08.819Z,58.54
2022-09-23T13:09:42.918Z,58.42
2022-09-23T13:12:24.748Z,58.42
2022-09-23T13:14:54.899Z,58.56
2022-09-23T13:17:31.263Z,58.72
2022-09-23T13:20:01.827Z,58.52
2022-09-23T13:23:05.989Z,57.65
2022-09-23T13:25:38.935Z,57.83
2022-09-23T13:28:19.384Z,57.53
2022-09-23T13:30:52.244Z,57.25
2022-09-23T13:33:27.510Z,57.70
2022-09-23T13:36:01.525Z,57.52
2022-09-23T13:38:32.103Z,57.77
2022-09-23T13:41:07.211Z,57.75
2022-09-23T13:43:42.541Z,57.85
2022-09-23T13:46:21.535Z,57.95
2022-09-23T13:48:51.687Z,57.76
2022-09-23T13:51:36.477Z,58.08
2022-09-23T13:54:05.097Z,57.67
2022-09-23T13:56:33.266Z,57.85
2022-09-23T13:59:24.482Z,57.85
2022-09-23T14:02:01.906Z,58.16
2022-09-23T14:04:28.474Z,58.02
2022-09-23T14:06:55.806Z,57.70
2022-09-23T14:09:27.412Z,57.68
2022-09-23T14:11:56.408Z,57.50
2022-09-23T14:14:23.499Z,58.07
2022-09-23T14:16:52.027Z,57.83
2022-09-23T14:19:23.507Z,58.03
2022-09-23T14:21:52.997Z,57.72
2022-09-23T14:24:20.784Z,57.77
2022-09-23T14:26:58.557Z,57.86
2022-09-23T14:29:28.610Z,57.92
2022-09-23T14:32:11.011Z,57.99
2022-09-23T14:35:03.264Z,58.05
2022-09-23T14:37:57.494Z,57.85
2022-09-23T14:40:48.998Z,57.86
2022-09-23T14:43:27.711Z,58.09
2022-09-23T14:45:56.433Z,57.96
2022-09-23T14:48:26.542Z,58.25
2022-09-23T14:50:58.353Z,58.09
2022-09-23T14:53:40.293Z,57.82
2022-09-23T14:56:06.756Z,57.81
2022-09-23T14:58:42.494Z,57.79
2022-09-23T15:01:27.685Z,57.88
2022-09-23T15:03:56.155Z,58.01
2022-09-23T15:06:23.465Z,57.79
2022-09-23T15:08:51.709Z,57.96
2022-09-23T15:11:18.309Z,58.06
2022-09-23T15:13:50.764Z,57.86
2022-09-23T15:16:26.306Z,58.17
2022-09-23T15:18:58.617Z,58.09
2022-09-23T15:21:40.851Z,57.91
2022-09-23T15:24:44.924Z,58.03
2022-09-23T15:27:35.194Z,58.34
2022-09-23T15:30:15.695Z,58.27
2022-09-23T15:32:43.406Z,58.22
2022-09-23T15:35:19.159Z,58.26
2022-09-23T15:37:48.388Z,58.19
2022-09-23T15:40:20.714Z,58.13
2022-09-23T15:42:51.429Z,58.27
2022-09-23T15:45:22.018Z,58.12
2022-09-23T15:47:50.500Z,58.02
2022-09-23T15:50:17.448Z,58.21
2022-09-23T15:52:45.607Z,58.06
2022-09-23T15:55:23.676Z,58.32
2022-09-23T15:57:50.613Z,58.25
2022-09-23T16:00:17.478Z,58.24
2022-09-23T16:02:46.995Z,58.24
2022-09-23T16:05:22.336Z,58.39
2022-09-23T16:07:52.254Z,58.35
2022-09-23T16:10:21.599Z,58.18
2022-09-23T16:12:48.972Z,58.28
2022-09-23T16:15:19.549Z,58.58
2022-09-23T16:17:46.370Z,58.60
2022-09-23T16:20:17.689Z,58.56
2022-09-23T16:22:54.612Z,58.49
2022-09-23T16:25:28.081Z,58.42
2022-09-23T16:27:56.445Z,58.47
2022-09-23T16:30:27.602Z,58.59
2022-09-23T16:32:54.365Z,58.52
2022-09-23T16:35:26.858Z,58.43
2022-09-23T16:37:53.686Z,58.35
2022-09-23T16:40:22.493Z,58.67
2022-09-23T16:42:52.069Z,58.61
2022-09-23T16:45:22.297Z,58.52
2022-09-23T16:47:51.100Z,58.56
2022-09-23T16:50:19.837Z,58.67
2022-09-23T16:52:46.913Z,58.68
2022-09-23T16:55:14.799Z,58.63
2022-09-23T16:57:41.876Z,58.85
2022-09-23T17:00:32.149Z,58.80
2022-09-23T17:03:17.115Z,58.92
2022-09-23T17:05:46.602Z,58.91
2022-09-23T17:08:15.175Z,58.95
2022-09-23T17:10:43.980Z,58.83
2022-09-23T17:13:11.984Z,59.13
2022-09-23T17:15:39.727Z,58.97
2022-09-23T17:18:07.598Z,59.04
2022-09-23T17:20:35.712Z,59.25
2022-09-23T17:23:05.932Z,59.07
2022-09-23T17:25:33.953Z,59.33
2022-09-23T17:28:00.850Z,59.34
2022-09-23T17:30:28.743Z,59.24
2022-09-23T17:32:55.250Z,59.29
2022-09-23T17:35:21.794Z,59.14
2022-09-23T17:37:48.348Z,59.24
2022-09-23T17:40:15.006Z,59.19
2022-09-23T17:42:41.738Z,59.18
2022-09-23T17:45:10.303Z,59.16
2022-09-23T17:47:41.311Z,59.43
2022-09-23T17:50:08.635Z,59.29
2022-09-23T17:52:35.217Z,59.23
2022-09-23T17:55:01.860Z,59.10
2022-09-23T17:57:28.390Z,59.33
2022-09-23T17:59:56.071Z,59.25
2022-09-23T18:02:22.828Z,59.40
2022-09-23T18:04:49.695Z,59.30
2022-09-23T18:07:16.637Z,59.37
2022-09-23T18:09:43.179Z,59.52
2022-09-23T18:12:09.750Z,59.47
2022-09-23T18:14:36.545Z,59.54
2022-09-23T18:17:03.088Z,59.50
2022-09-23T18:19:29.702Z,59.54
2022-09-23T18:21:57.257Z,59.67
2022-09-23T18:24:33.224Z,59.56
2022-09-23T18:27:01.051Z,59.46
2022-09-23T18:29:28.089Z,59.59
2022-09-23T18:31:54.749Z,59.68
2022-09-23T18:34:21.966Z,59.67
2022-09-23T18:36:48.586Z,59.55
2022-09-23T18:39:15.472Z,59.66
2022-09-23T18:41:42.319Z,59.69
2022-09-23T18:44:09.730Z,59.77
2022-09-23T18:46:36.535Z,59.83
2022-09-23T18:49:22.826Z,59.71
2022-09-23T18:51:55.571Z,59.89
2022-09-23T18:54:27.687Z,59.78
2022-09-23T18:56:54.870Z,59.71
2022-09-23T18:59:25.172Z,59.80
2022-09-23T19:01:54.962Z,59.99
2022-09-23T19:04:23.694Z,59.96
2022-09-23T19:06:50.783Z,60.29
2022-09-23T19:09:18.325Z,60.12
2022-09-23T19:11:45.159Z,59.84
2022-09-23T19:14:12.981Z,59.91
2022-09-23T19:16:40.919Z,60.02
2022-09-23T19:19:08.214Z,59.82
2022-09-23T19:21:35.752Z,60.03
2022-09-23T19:24:05.521Z,59.85
2022-09-23T19:26:38.407Z,59.89
2022-09-23T19:29:08.123Z,59.91
2022-09-23T19:31:40.280Z,59.95
2022-09-23T19:34:37.712Z,60.12
2022-09-23T19:37:04.484Z,60.09
2022-09-23T19:39:31.858Z,60.19
2022-09-23T19:41:59.038Z,60.05
2022-09-23T19:44:26.529Z,60.12
2022-09-23T19:46:56.674Z,60.20
2022-09-23T19:49:24.791Z,60.17
2022-09-23T19:51:51.875Z,60.23
2022-09-23T19:54:20.576Z,60.26
2022-09-23T19:56:50.573Z,60.35
2022-09-23T19:59:19.124Z,60.31
2022-09-23T20:01:46.632Z,60.15
2022-09-23T20:04:13.361Z,60.30
2022-09-23T20:06:40.993Z,60.30
2022-09-23T20:09:07.727Z,60.26
2022-09-23T20:11:34.535Z,60.28
2022-09-23T20:14:03.278Z,60.33
2022-09-23T20:16:32.980Z,60.32
2022-09-23T20:19:00.926Z,60.45
2022-09-23T20:21:29.248Z,60.43
2022-09-23T20:23:56.668Z,60.44
2022-09-23T20:26:41.486Z,60.52
2022-09-23T20:29:08.952Z,60.57
2022-09-23T20:31:36.023Z,60.48
2022-09-23T20:34:05.748Z,60.63
2022-09-23T20:36:34.026Z,60.68
2022-09-23T20:39:02.577Z,60.56
2022-09-23T20:41:31.263Z,60.80
2022-09-23T20:44:01.366Z,60.74
2022-09-23T20:46:29.413Z,60.66
2022-09-23T20:48:56.938Z,60.74
2022-09-23T20:51:25.034Z,60.67
2022-09-23T20:53:53.164Z,60.62
2022-09-23T20:56:23.409Z,60.59
2022-09-23T20:58:52.452Z,60.96
2022-09-23T21:01:19.615Z,60.81
2022-09-23T21:03:51.335Z,60.73
2022-09-23T21:06:19.432Z,60.82
2022-09-23T21:08:46.492Z,60.90
2022-09-23T21:11:15.631Z,60.80
2022-09-23T21:13:51.826Z,60.73
2022-09-23T21:16:22.506Z,60.86
2022-09-23T21:18:50.441Z,60.82
2022-09-23T21:21:19.538Z,60.92
2022-09-23T21:23:47.652Z,60.98
2022-09-23T21:26:19.395Z,60.92
2022-09-23T21:28:50.906Z,60.90
2022-09-23T21:31:24.059Z,60.94
2022-09-23T21:33:56.643Z,60.91
2022-09-23T21:36:24.828Z,61.01
2022-09-23T21:38:52.441Z,61.02
2022-09-23T21:41:19.927Z,61.22
2022-09-23T21:43:46.582Z,61.16
2022-09-23T21:46:15.483Z,61.20
2022-09-23T21:48:42.694Z,61.21
2022-09-23T21:51:14.124Z,61.23
2022-09-23T21:53:42.118Z,61.31
2022-09-23T21:56:19.593Z,61.30
2022-09-23T21:58:47.106Z,61.31
2022-09-23T22:01:25.958Z,61.22
2022-09-23T22:03:54.877Z,61.34
2022-09-23T22:06:24.285Z,61.37
2022-09-23T22:08:53.329Z,61.40
2022-09-23T22:11:41.637Z,61.37
2022-09-23T22:14:12.563Z,61.33
2022-09-23T22:16:39.787Z,61.42
2022-09-23T22:19:07.125Z,61.41
2022-09-23T22:21:39.057Z,61.34
2022-09-23T22:24:08.362Z,61.54
2022-09-23T22:26:38.340Z,61.57
2022-09-23T22:29:25.269Z,61.58
2022-09-23T22:32:10.369Z,61.64
2022-09-23T22:34:52.786Z,61.67
2022-09-23T22:37:34.108Z,61.53
2022-09-23T22:40:01.997Z,61.65
2022-09-23T22:42:29.201Z,61.69
2022-09-23T22:44:55.866Z,61.66
2022-09-23T22:47:22.640Z,61.74
2022-09-23T22:49:49.223Z,61.69
2022-09-23T22:52:21.048Z,61.75
2022-09-23T22:54:47.877Z,61.55
2022-09-23T22:57:15.398Z,61.84
2022-09-23T22:59:44.030Z,61.84
2022-09-23T23:02:10.945Z,61.88
2022-09-23T23:04:37.531Z,61.84
2022-09-23T23:07:04.615Z,61.81
2022-09-23T23:09:31.198Z,62.03
2022-09-23T23:11:57.836Z,61.92
2022-09-23T23:14:25.755Z,61.98
2022-09-23T23:16:52.805Z,61.94
2022-09-23T23:19:19.465Z,62.00
2022-09-23T23:21:46.332Z,62.00
2022-09-23T23:24:17.828Z,61.85
2022-09-23T23:26:45.184Z,61.98
2022-09-23T23:29:13.336Z,62.13
2022-09-23T23:31:40.571Z,62.00
2022-09-23T23:34:11.926Z,61.92
2022-09-23T23:36:38.496Z,62.04
2022-09-23T23:39:05.119Z,62.03
2022-09-23T23:41:31.678Z,62.09
2022-09-23T23:44:04.053Z,62.05
2022-09-23T23:46:32.257Z,62.15
2022-09-23T23:48:59.761Z,62.22
2022-09-23T23:51:27.308Z,62.18
2022-09-23T23:53:55.834Z,62.04
2022-09-23T23:56:24.960Z,62.09
2022-09-23T23:58:56.143Z,62.08
